Time;durP1;ratioP1;P1;durP2;ratioP2;P2;SDS_P1;SDS_P2;PMS_P1;PMS_P2;Temp;Humidity;BMP_temperature;BMP_pressure;BME280_temperature;BME280_humidity;BME280_pressure;Samples;Min_cycle;Max_cycle;Signal;HPM_P1;HPM_P2
2022/09/02 00:01:32;;;;;;;22.00;16.70;;;16.80;99.90;;;;;;5051592;28;20029;-74
2022/09/02 00:04:02;;;;;;;23.40;16.33;;;16.80;99.90;;;;;;5051476;28;20052;-73
2022/09/02 00:06:30;;;;;;;20.67;14.77;;;16.80;99.90;;;;;;5051626;28;20041;-76
2022/09/02 00:08:55;;;;;;;24.63;16.65;;;16.80;99.90;;;;;;5051127;28;20028;-76
2022/09/02 00:11:26;;;;;;;21.30;14.95;;;16.80;99.90;;;;;;5047839;28;20025;-77
2022/09/02 00:13:52;;;;;;;24.65;15.55;;;16.90;99.90;;;;;;5051311;28;20017;-75
2022/09/02 00:16:21;;;;;;;19.42;13.48;;;16.90;99.90;;;;;;5050961;28;20025;-75
2022/09/02 00:18:47;;;;;;;25.40;15.20;;;16.80;99.90;;;;;;5050765;28;20389;-75
2022/09/02 00:21:14;;;;;;;22.58;14.57;;;16.80;99.90;;;;;;5051159;28;20025;-75
2022/09/02 00:23:42;;;;;;;21.67;15.15;;;16.80;99.90;;;;;;5050905;28;20033;-75
2022/09/02 00:26:08;;;;;;;19.70;14.80;;;16.80;99.90;;;;;;5050901;28;20074;-75
2022/09/02 00:28:34;;;;;;;22.42;15.63;;;16.80;99.90;;;;;;5050712;28;20032;-74
2022/09/02 00:30:59;;;;;;;22.00;15.70;;;16.80;99.90;;;;;;5038826;28;20068;-75
2022/09/02 00:33:25;;;;;;;22.67;15.20;;;16.80;99.90;;;;;;5040346;28;20024;-74
2022/09/02 00:35:51;;;;;;;21.33;15.85;;;16.80;99.90;;;;;;5021515;28;20072;-75
2022/09/02 00:40:45;;;;;;;21.02;14.70;;;16.80;99.90;;;;;;5040025;28;20024;-75
2022/09/02 00:43:10;;;;;;;27.48;15.45;;;16.80;99.90;;;;;;5050852;28;20021;-74
2022/09/02 00:45:36;;;;;;;20.38;14.25;;;16.80;99.90;;;;;;5050980;28;20451;-74
2022/09/02 00:48:04;;;;;;;22.40;13.98;;;16.80;99.90;;;;;;5051391;28;20416;-75
2022/09/02 00:50:34;;;;;;;21.00;13.90;;;16.80;99.90;;;;;;5014426;28;20041;-75
2022/09/02 00:53:04;;;;;;;21.77;14.43;;;16.70;99.90;;;;;;5032251;28;20116;-74
2022/09/02 00:55:35;;;;;;;23.27;14.83;;;16.80;99.90;;;;;;5050974;28;20024;-74
2022/09/02 00:58:12;;;;;;;19.40;13.48;;;16.70;99.90;;;;;;5050612;28;20259;-74
2022/09/02 01:00:43;;;;;;;19.98;13.63;;;16.70;99.90;;;;;;5051614;28;20025;-74
2022/09/02 01:03:11;;;;;;;20.60;14.43;;;16.70;99.90;;;;;;5054824;28;20504;-74
2022/09/02 01:05:43;;;;;;;23.92;12.90;;;16.70;99.90;;;;;;5054749;28;20021;-73
2022/09/02 01:08:09;;;;;;;;;;;16.70;99.90;;;;;;5055016;28;20504;-74
2022/09/02 01:10:35;;;;;;;18.80;13.10;;;16.80;99.90;;;;;;5054762;28;20046;-74
2022/09/02 01:13:06;;;;;;;16.80;12.75;;;16.80;99.90;;;;;;5053617;28;20100;-75
2022/09/02 01:15:37;;;;;;;17.23;12.25;;;16.70;99.90;;;;;;5054793;28;20032;-74
2022/09/02 01:18:05;;;;;;;;;;;16.70;99.90;;;;;;5054705;28;20023;-74
2022/09/02 01:20:31;;;;;;;21.55;13.80;;;16.70;99.90;;;;;;5054692;28;19905;-74
2022/09/02 01:22:57;;;;;;;20.67;13.65;;;16.70;99.90;;;;;;5054345;28;20021;-74
2022/09/02 01:25:33;;;;;;;19.67;13.45;;;16.70;99.90;;;;;;5054345;28;20036;-75
2022/09/02 01:28:08;;;;;;;20.38;14.13;;;16.70;99.90;;;;;;5053881;28;20504;-74
2022/09/02 01:30:35;;;;;;;20.58;13.85;;;16.70;99.90;;;;;;5054663;28;20033;-74
2022/09/02 01:33:01;;;;;;;20.42;14.07;;;16.80;99.90;;;;;;5054309;28;20705;-74
2022/09/02 01:35:28;;;;;;;18.58;13.88;;;16.70;99.90;;;;;;5054177;28;20039;-74
2022/09/02 01:37:56;;;;;;;19.98;12.50;;;16.80;99.90;;;;;;5053940;28;20036;-74
2022/09/02 01:40:24;;;;;;;15.57;12.88;;;16.80;99.90;;;;;;5036176;28;20406;-74
2022/09/02 01:42:54;;;;;;;18.50;12.82;;;16.80;99.90;;;;;;5053895;28;20055;-74
2022/09/02 01:45:21;;;;;;;17.33;12.85;;;16.80;99.90;;;;;;5054132;28;20118;-74
2022/09/02 01:47:47;;;;;;;14.35;11.45;;;16.80;99.90;;;;;;5054468;28;20051;-74
2022/09/02 01:50:13;;;;;;;19.40;12.70;;;16.80;99.90;;;;;;5035773;28;20037;-74
2022/09/02 01:52:39;;;;;;;16.00;12.60;;;16.80;99.90;;;;;;5054095;28;20036;-74
2022/09/02 01:55:05;;;;;;;19.55;12.68;;;16.80;99.90;;;;;;5053977;28;20481;-75
2022/09/02 01:57:31;;;;;;;17.60;13.13;;;16.80;99.90;;;;;;5053570;28;20100;-74
2022/09/02 01:59:57;;;;;;;18.75;13.48;;;16.80;99.90;;;;;;5053669;28;20120;-74
2022/09/02 02:02:23;;;;;;;19.55;13.10;;;16.70;99.90;;;;;;5053639;28;20481;-75
2022/09/02 02:04:50;;;;;;;22.75;12.93;;;16.70;99.90;;;;;;5053694;28;20027;-74
2022/09/02 02:07:18;;;;;;;19.08;12.98;;;16.70;99.90;;;;;;5053823;28;20103;-74
2022/09/02 02:09:43;;;;;;;20.40;13.00;;;16.70;99.90;;;;;;5053424;28;20025;-75
2022/09/02 02:12:09;;;;;;;22.17;13.70;;;16.70;99.90;;;;;;5052026;28;20489;-74
2022/09/02 02:14:36;;;;;;;22.38;14.95;;;16.70;99.90;;;;;;5053493;28;20021;-73
2022/09/02 02:17:03;;;;;;;21.23;13.68;;;16.70;99.90;;;;;;5053453;28;20025;-74
2022/09/02 02:19:29;;;;;;;19.40;13.93;;;16.70;99.90;;;;;;5053400;28;20068;-74
2022/09/02 02:21:55;;;;;;;17.88;12.13;;;16.60;99.90;;;;;;5053401;28;20049;-75
2022/09/02 02:24:20;;;;;;;20.20;11.82;;;16.60;99.90;;;;;;5052743;28;20029;-75
2022/09/02 02:26:46;;;;;;;18.60;12.55;;;16.60;99.90;;;;;;5053216;28;20052;-75
2022/09/02 02:29:13;;;;;;;23.05;13.02;;;16.60;99.90;;;;;;5053177;28;20037;-74
2022/09/02 02:31:39;;;;;;;17.83;11.80;;;16.50;99.90;;;;;;5035419;28;20111;-74
2022/09/02 02:34:05;;;;;;;18.73;12.05;;;16.50;99.90;;;;;;5035194;28;20025;-75
2022/09/02 02:36:31;;;;;;;20.23;12.80;;;16.60;99.90;;;;;;5053190;28;20126;-75
2022/09/02 02:38:57;;;;;;;18.52;12.18;;;16.60;99.90;;;;;;5053185;28;20110;-74
2022/09/02 02:41:22;;;;;;;14.32;11.65;;;16.60;99.90;;;;;;5052652;28;20489;-75
2022/09/02 02:43:48;;;;;;;16.67;10.75;;;16.60;99.90;;;;;;5052847;28;20108;-74
2022/09/02 02:46:14;;;;;;;15.65;10.13;;;16.60;99.90;;;;;;5053023;28;20013;-74
2022/09/02 02:48:41;;;;;;;17.45;10.23;;;16.60;99.90;;;;;;5053920;28;20033;-75
2022/09/02 02:51:08;;;;;;;17.00;9.52;;;16.60;99.90;;;;;;5035202;28;20384;-74
2022/09/02 02:53:35;;;;;;;12.48;9.00;;;16.60;99.90;;;;;;5052492;28;20049;-74
2022/09/02 02:56:02;;;;;;;10.15;8.80;;;16.50;99.90;;;;;;5052723;28;20477;-74
2022/09/02 02:58:28;;;;;;;13.48;8.00;;;16.50;99.90;;;;;;5052483;28;20024;-74
2022/09/02 03:00:57;;;;;;;19.00;8.48;;;16.50;99.90;;;;;;5052829;28;20029;-74
2022/09/02 03:03:23;;;;;;;13.93;8.50;;;16.50;99.90;;;;;;5052820;28;20032;-73
2022/09/02 03:05:50;;;;;;;13.48;8.07;;;16.50;99.90;;;;;;5052465;28;20029;-74
2022/09/02 03:08:19;;;;;;;11.88;8.40;;;16.40;99.90;;;;;;5052192;28;20039;-74
2022/09/02 03:10:48;;;;;;;10.00;6.57;;;16.40;99.90;;;;;;5052549;28;20033;-74
2022/09/02 03:13:14;;;;;;;9.40;7.45;;;16.40;99.90;;;;;;5051390;28;20029;-74
2022/09/02 03:15:41;;;;;;;9.23;7.53;;;16.50;99.90;;;;;;5052200;28;20031;-74
2022/09/02 03:18:07;;;;;;;9.52;6.97;;;16.40;99.90;;;;;;5051759;28;20125;-74
2022/09/02 03:20:34;;;;;;;9.02;7.25;;;16.40;99.90;;;;;;5052079;28;20033;-74
2022/09/02 03:23:00;;;;;;;10.77;7.55;;;16.40;99.90;;;;;;5050390;28;20091;-74
2022/09/02 03:25:28;;;;;;;17.92;7.43;;;16.40;99.90;;;;;;5052260;28;20042;-74
2022/09/02 03:27:55;;;;;;;10.10;7.05;;;16.40;99.90;;;;;;5051931;28;20025;-74
2022/09/02 03:30:24;;;;;;;10.20;6.97;;;16.40;99.90;;;;;;5051932;28;20089;-74
2022/09/02 03:32:54;;;;;;;9.40;6.93;;;16.40;99.90;;;;;;5051374;28;20092;-74
2022/09/02 03:35:21;;;;;;;8.02;6.65;;;16.30;99.90;;;;;;5051890;28;20029;-74
2022/09/02 03:37:48;;;;;;;10.18;7.00;;;16.30;99.90;;;;;;5051831;28;20430;-74
2022/09/02 03:40:18;;;;;;;9.45;7.63;;;16.30;99.90;;;;;;5051944;28;20102;-74
2022/09/02 03:42:44;;;;;;;9.23;7.03;;;16.30;99.90;;;;;;5051579;28;20106;-73
2022/09/02 03:45:11;;;;;;;8.68;7.10;;;16.30;99.90;;;;;;5052254;28;20072;-73
2022/09/02 03:47:42;;;;;;;8.02;7.07;;;16.30;99.90;;;;;;5070915;23;20112;-77
2022/09/02 03:50:08;;;;;;;10.20;7.22;;;16.30;99.90;;;;;;5071433;28;20074;-76
2022/09/02 03:52:35;;;;;;;10.27;6.82;;;16.40;99.90;;;;;;5070905;28;20106;-76
2022/09/02 03:55:02;;;;;;;10.57;7.57;;;16.40;99.90;;;;;;5071357;28;20388;-76
2022/09/02 03:57:27;;;;;;;14.90;7.28;;;16.40;99.90;;;;;;5071380;28;20024;-76
2022/09/02 03:59:53;;;;;;;9.13;7.35;;;16.30;99.90;;;;;;5071366;28;20181;-76
2022/09/02 04:02:19;;;;;;;12.02;7.35;;;16.30;99.90;;;;;;5071308;28;20032;-76
2022/09/02 04:04:45;;;;;;;10.65;7.90;;;16.40;99.90;;;;;;5071161;28;20024;-76
2022/09/02 04:07:10;;;;;;;9.63;8.48;;;16.40;99.90;;;;;;5071605;28;20094;-76
2022/09/02 04:09:36;;;;;;;10.90;8.65;;;16.40;99.90;;;;;;5071512;28;20033;-76
2022/09/02 04:12:04;;;;;;;8.88;7.55;;;16.40;99.90;;;;;;5070583;28;20103;-76
2022/09/02 04:14:29;;;;;;;8.70;7.88;;;16.30;99.90;;;;;;5071337;28;20024;-76
2022/09/02 04:16:55;;;;;;;10.75;8.20;;;16.40;99.90;;;;;;5071075;28;20028;-76
2022/09/02 04:19:21;;;;;;;17.83;8.95;;;16.40;99.90;;;;;;5053110;28;20024;-76
2022/09/02 04:21:47;;;;;;;15.02;8.65;;;16.40;99.90;;;;;;5071351;28;20025;-76
2022/09/02 04:24:13;;;;;;;16.20;7.95;;;16.30;99.90;;;;;;5071454;28;20051;-76
2022/09/02 04:26:39;;;;;;;13.55;7.93;;;16.30;99.90;;;;;;5071163;28;20138;-76
2022/09/02 04:29:07;;;;;;;11.48;7.35;;;16.30;99.90;;;;;;5071285;28;20024;-76
2022/09/02 04:31:32;;;;;;;12.27;7.72;;;16.30;99.90;;;;;;5053076;28;20021;-76
2022/09/02 04:33:59;;;;;;;10.60;7.78;;;16.30;99.90;;;;;;5071359;28;20021;-76
2022/09/02 04:36:25;;;;;;;13.18;7.07;;;16.30;99.90;;;;;;5071452;28;20032;-76
2022/09/02 04:38:52;;;;;;;11.38;7.68;;;16.30;99.90;;;;;;5052995;28;20107;-76
2022/09/02 04:41:24;;;;;;;10.13;7.03;;;16.30;99.90;;;;;;5071322;28;20024;-76
2022/09/02 04:43:51;;;;;;;10.57;7.18;;;16.30;99.90;;;;;;5071201;28;20032;-76
2022/09/02 04:46:17;;;;;;;10.70;7.13;;;16.30;99.90;;;;;;5053259;28;20025;-76
2022/09/02 04:48:44;;;;;;;9.50;6.82;;;16.30;99.90;;;;;;5089571;22;20041;-75
2022/09/02 04:51:23;;;;;;;8.88;6.40;;;16.40;99.90;;;;;;5070556;28;20036;-75
2022/09/02 04:53:51;;;;;;;8.07;5.82;;;16.40;99.90;;;;;;5070850;28;20097;-75
2022/09/02 04:56:21;;;;;;;9.10;7.68;;;16.30;99.90;;;;;;5070925;28;20488;-75
2022/09/02 04:58:49;;;;;;;11.80;7.50;;;16.30;99.90;;;;;;5070901;28;20025;-76
2022/09/02 05:01:27;;;;;;;13.50;8.18;;;16.20;99.90;;;;;;5071100;28;20029;-75
2022/09/02 05:03:53;;;;;;;8.75;7.57;;;16.20;99.90;;;;;;5052359;28;20457;-75
2022/09/02 05:06:27;;;;;;;11.55;8.35;;;16.20;99.90;;;;;;5070584;28;20472;-75
2022/09/02 05:08:55;;;;;;;9.88;7.38;;;16.20;99.90;;;;;;5070638;28;20048;-75
2022/09/02 05:11:27;;;;;;;10.80;7.70;;;16.20;99.90;;;;;;5069580;28;20037;-75
2022/09/02 05:13:53;;;;;;;13.15;8.45;;;16.20;99.90;;;;;;5052852;28;20024;-76
2022/09/02 05:16:25;;;;;;;11.20;7.80;;;16.30;99.90;;;;;;5070768;28;20025;-76
2022/09/02 05:18:53;;;;;;;10.15;7.32;;;16.30;99.90;;;;;;5070426;28;20048;-75
2022/09/02 05:21:19;;;;;;;8.85;7.10;;;16.40;99.90;;;;;;5070383;28;20021;-75
2022/09/02 05:23:45;;;;;;;9.23;7.13;;;16.40;99.90;;;;;;5070293;28;20106;-76
2022/09/02 05:26:12;;;;;;;11.55;7.57;;;16.30;99.90;;;;;;5070508;28;20039;-75
2022/09/02 05:28:39;;;;;;;9.55;7.88;;;16.30;99.90;;;;;;5070331;28;20028;-76
2022/09/02 05:31:14;;;;;;;14.52;10.13;;;16.30;99.90;;;;;;5070482;28;20029;-75
2022/09/02 05:33:40;;;;;;;11.82;9.40;;;16.30;99.90;;;;;;5070204;28;20024;-75
2022/09/02 05:36:14;;;;;;;10.98;9.32;;;16.30;99.90;;;;;;5070298;28;20021;-75
2022/09/02 05:38:41;;;;;;;12.55;8.43;;;16.40;99.90;;;;;;5070172;28;20028;-75
2022/09/02 05:41:27;;;;;;;11.90;8.52;;;16.30;99.90;;;;;;5070216;28;20021;-75
2022/09/02 05:43:55;;;;;;;13.18;8.65;;;16.30;99.90;;;;;;5069994;28;20032;-75
2022/09/02 05:46:23;;;;;;;12.38;8.70;;;16.30;99.90;;;;;;5071029;28;20035;-75
2022/09/02 05:49:06;;;;;;;8.45;7.55;;;16.40;99.90;;;;;;5093396;22;20047;-75
2022/09/02 05:51:45;;;;;;;9.82;7.25;;;16.40;99.90;;;;;;5056216;28;20028;-76
2022/09/02 05:54:17;;;;;;;10.85;7.50;;;16.50;99.90;;;;;;5056131;28;20027;-75
2022/09/02 05:56:46;;;;;;;10.02;7.18;;;16.50;99.90;;;;;;5073770;28;20024;-76
2022/09/02 05:59:12;;;;;;;12.68;7.20;;;16.50;99.90;;;;;;5073827;28;20057;-75
2022/09/02 06:01:38;;;;;;;7.50;6.10;;;16.60;99.90;;;;;;5073999;28;20043;-75
2022/09/02 06:04:05;;;;;;;9.70;7.13;;;16.60;99.90;;;;;;5073652;28;20021;-76
2022/09/02 06:06:32;;;;;;;7.97;6.70;;;16.60;99.90;;;;;;5073786;28;20016;-75
2022/09/02 06:08:59;;;;;;;9.05;6.20;;;16.60;99.90;;;;;;5073597;28;20029;-75
2022/09/02 06:11:25;;;;;;;9.85;6.82;;;16.70;99.90;;;;;;5072959;28;20031;-75
2022/09/02 06:13:54;;;;;;;6.95;6.25;;;16.70;99.90;;;;;;5073331;28;20056;-75
2022/09/02 06:16:21;;;;;;;11.55;6.45;;;16.80;99.90;;;;;;5047631;28;20059;-75
2022/09/02 06:18:48;;;;;;;7.82;7.03;;;16.80;99.90;;;;;;5053447;28;20110;-76
2022/09/02 06:21:14;;;;;;;9.60;6.55;;;16.90;99.90;;;;;;5053540;28;20021;-75
2022/09/02 06:23:41;;;;;;;8.90;5.82;;;16.90;99.90;;;;;;5053488;28;20057;-75
2022/09/02 06:26:08;;;;;;;8.35;6.18;;;17.00;99.90;;;;;;5053166;28;20392;-76
2022/09/02 06:28:35;;;;;;;7.50;6.70;;;17.00;99.90;;;;;;5052930;28;20405;-76
2022/09/02 06:31:13;;;;;;;10.27;6.05;;;17.10;99.90;;;;;;5053217;28;20036;-76
2022/09/02 06:33:40;;;;;;;7.57;6.72;;;17.10;99.90;;;;;;5053295;28;20056;-76
2022/09/02 06:36:09;;;;;;;10.15;6.68;;;17.20;99.90;;;;;;5052982;28;20067;-76
2022/09/02 06:38:39;;;;;;;7.90;6.20;;;17.20;99.90;;;;;;5035355;28;20028;-75
2022/09/02 06:41:06;;;;;;;8.65;6.03;;;17.30;99.90;;;;;;5053205;28;20021;-76
2022/09/02 06:43:32;;;;;;;7.57;6.43;;;17.30;99.90;;;;;;5072225;28;20032;-76
2022/09/02 06:45:58;;;;;;;10.88;6.95;;;17.40;99.90;;;;;;5073045;28;20513;-75
2022/09/02 06:48:24;;;;;;;7.68;6.50;;;17.40;99.90;;;;;;5073243;28;20040;-76
2022/09/02 06:50:50;;;;;;;6.65;5.78;;;17.50;99.90;;;;;;5072920;28;20503;-76
2022/09/02 06:53:18;;;;;;;8.60;6.38;;;17.50;99.90;;;;;;5069423;28;20055;-75
2022/09/02 06:55:44;;;;;;;10.13;6.05;;;17.60;99.90;;;;;;5072555;28;20024;-75
2022/09/02 06:58:11;;;;;;;7.10;5.70;;;17.60;99.90;;;;;;5063907;28;20587;-75
2022/09/02 07:00:38;;;;;;;10.35;5.68;;;17.70;99.90;;;;;;5051512;28;20059;-76
2022/09/02 07:06:08;;;;;;;6.43;5.65;;;17.80;99.90;;;;;;5072663;28;20039;-75
2022/09/02 07:08:41;;;;;;;8.48;5.63;;;17.80;99.90;;;;;;5072520;28;20027;-75
2022/09/02 07:11:16;;;;;;;6.60;5.50;;;17.90;99.90;;;;;;5072538;28;20085;-76
2022/09/02 07:13:42;;;;;;;6.18;4.82;;;17.90;99.90;;;;;;5052149;28;20025;-76
2022/09/02 07:16:08;;;;;;;6.47;4.45;;;18.00;99.90;;;;;;5052487;28;20044;-76
2022/09/02 07:18:35;;;;;;;8.70;5.03;;;18.20;99.90;;;;;;5052398;28;20021;-76
2022/09/02 18:02:06;;;;;;;11.50;5.45;;;21.40;99.90;;;;;;5068406;28;20954;-75
2022/09/02 18:04:56;;;;;;;9.38;6.18;;;20.80;99.90;;;;;;5063592;28;20037;-75
2022/09/02 18:07:39;;;;;;;11.50;7.45;;;20.70;99.90;;;;;;5068618;28;20031;-75
2022/09/02 18:10:05;;;;;;;13.57;8.05;;;20.50;99.90;;;;;;5067869;28;20060;-75
2022/09/02 18:12:34;;;;;;;13.07;6.57;;;20.40;99.90;;;;;;5059944;28;20107;-76
2022/09/02 18:15:01;;;;;;;12.05;6.75;;;20.40;99.90;;;;;;5047856;28;20490;-76
2022/09/02 18:17:36;;;;;;;9.95;6.25;;;20.30;99.90;;;;;;5046218;28;20090;-75
2022/09/02 18:20:16;;;;;;;10.43;7.03;;;20.30;99.90;;;;;;5046997;28;20099;-76
2022/09/02 18:23:08;;;;;;;12.75;7.95;;;20.20;99.90;;;;;;5047500;28;20053;-75
2022/09/02 18:25:37;;;;;;;;;;;20.10;99.90;;;;;;5048826;28;20053;-75
2022/09/02 18:28:21;;;;;;;8.25;5.85;;;20.00;99.90;;;;;;5047352;28;20296;-76
2022/09/02 18:30:56;;;;;;;11.70;6.20;;;19.90;99.90;;;;;;5047298;28;20120;-76
2022/09/02 18:33:48;;;;;;;11.68;8.10;;;19.90;99.90;;;;;;5047419;28;20029;-76
2022/09/02 18:36:20;;;;;;;;;;;19.80;99.90;;;;;;5046958;28;20033;-75
2022/09/02 18:39:01;;;;;;;10.43;7.05;;;19.70;99.90;;;;;;5047878;28;19908;-74
2022/09/02 18:41:33;;;;;;;10.82;7.18;;;19.70;99.90;;;;;;5047365;28;20056;-75
2022/09/02 18:44:06;;;;;;;13.20;7.68;;;19.60;99.90;;;;;;5047369;28;20116;-75
2022/09/02 18:46:43;;;;;;;10.00;7.68;;;19.50;99.90;;;;;;5047845;28;20064;-74
2022/09/02 18:49:13;;;;;;;11.07;8.45;;;19.40;99.90;;;;;;5048253;28;20067;-75
2022/09/02 18:51:41;;;;;;;11.32;8.90;;;19.30;99.90;;;;;;5047492;28;20037;-75
2022/09/02 18:54:21;;;;;;;15.10;8.43;;;19.30;99.90;;;;;;5047239;28;20024;-74
2022/09/02 18:56:57;;;;;;;12.75;10.02;;;19.20;99.90;;;;;;5047535;28;20529;-74
2022/09/02 18:59:47;;;;;;;16.77;9.85;;;19.10;99.90;;;;;;5045628;28;20025;-74
2022/09/02 19:02:34;;;;;;;10.32;8.70;;;19.10;99.90;;;;;;5047326;28;20044;-75
2022/09/02 19:05:00;;;;;;;13.15;10.80;;;19.00;99.90;;;;;;5062938;28;20031;-75
2022/09/02 19:10:12;;;;;;;13.13;9.77;;;18.90;99.90;;;;;;5047141;28;20111;-75
2022/09/02 19:12:39;;;;;;;13.20;10.32;;;18.90;99.90;;;;;;5048708;28;20021;-75
2022/09/02 19:15:08;;;;;;;16.35;9.75;;;18.90;99.90;;;;;;5041185;28;20017;-75
2022/09/02 19:17:35;;;;;;;11.63;9.65;;;18.80;99.90;;;;;;5044180;28;20021;-75
2022/09/02 19:20:01;;;;;;;14.20;11.48;;;18.70;99.90;;;;;;5038985;28;20025;-75
2022/09/02 19:22:29;;;;;;;13.50;10.60;;;18.70;99.90;;;;;;5035136;28;20363;-75
2022/09/02 19:25:01;;;;;;;11.82;9.57;;;18.60;99.90;;;;;;5043373;28;20029;-74
2022/09/02 19:27:34;;;;;;;12.65;9.73;;;18.60;99.90;;;;;;5042189;28;20020;-74
2022/09/02 19:30:06;;;;;;;11.52;10.30;;;18.60;99.90;;;;;;5042264;28;20033;-74
2022/09/02 19:32:34;;;;;;;12.88;9.40;;;18.60;99.90;;;;;;5043121;28;20025;-74
2022/09/02 19:35:04;;;;;;;14.13;10.18;;;18.60;99.90;;;;;;5043920;28;20017;-74
2022/09/02 19:37:30;;;;;;;15.60;12.07;;;18.50;99.90;;;;;;5042478;28;20088;-75
2022/09/02 19:39:55;;;;;;;18.88;9.45;;;18.40;99.90;;;;;;5042804;28;20096;-74
2022/09/02 19:42:22;;;;;;;11.05;9.15;;;18.30;99.90;;;;;;5044079;28;20483;-74
2022/09/02 19:44:47;;;;;;;15.57;11.23;;;18.20;99.90;;;;;;5042111;28;20037;-74
2022/09/02 19:47:13;;;;;;;12.52;8.90;;;18.10;99.90;;;;;;5042687;28;20056;-74
2022/09/02 19:49:40;;;;;;;12.85;7.93;;;17.90;99.90;;;;;;5043912;28;20052;-74
2022/09/02 19:52:06;;;;;;;12.55;8.57;;;17.90;99.90;;;;;;5029831;28;20029;-74
2022/09/02 19:54:32;;;;;;;14.45;9.55;;;17.80;99.90;;;;;;5029615;28;20040;-75
2022/09/02 19:56:59;;;;;;;13.25;9.85;;;17.80;99.90;;;;;;5029489;28;20025;-74
2022/09/02 19:59:25;;;;;;;14.73;8.57;;;17.70;99.90;;;;;;5029503;28;20021;-75
2022/09/02 20:01:51;;;;;;;15.40;11.23;;;17.60;99.90;;;;;;5029103;28;20030;-74
2022/09/02 20:04:17;;;;;;;11.50;9.82;;;17.50;99.90;;;;;;5028674;28;20083;-75
2022/09/02 20:06:43;;;;;;;12.10;10.00;;;17.50;99.90;;;;;;5026320;28;20080;-74
2022/09/02 20:09:09;;;;;;;15.77;10.95;;;17.40;99.90;;;;;;5028884;28;20030;-74
2022/09/02 20:11:35;;;;;;;15.57;10.60;;;17.30;99.90;;;;;;5028370;28;20501;-74
2022/09/02 20:14:01;;;;;;;18.08;11.63;;;17.20;99.90;;;;;;5028364;28;20022;-74
2022/09/02 20:16:27;;;;;;;15.15;10.63;;;17.20;99.90;;;;;;5037378;28;20104;-74
2022/09/02 20:18:55;;;;;;;14.43;11.05;;;17.10;99.90;;;;;;5039355;28;20040;-74
2022/09/02 20:21:41;;;;;;;21.42;12.93;;;17.00;99.90;;;;;;5033594;28;20045;-74
2022/09/02 20:24:08;;;;;;;15.27;10.93;;;17.00;99.90;;;;;;5028196;28;20075;-74
2022/09/02 20:26:39;;;;;;;15.45;11.48;;;17.00;99.90;;;;;;5028358;28;20124;-74
2022/09/02 20:29:17;;;;;;;;;;;16.90;99.90;;;;;;5029611;28;20029;-74
2022/09/02 20:31:42;;;;;;;21.13;14.65;;;16.90;99.90;;;;;;5028444;28;20270;-74
2022/09/02 20:34:43;;;;;;;22.85;14.68;;;16.90;99.90;;;;;;5028422;28;20093;-75
2022/09/02 20:37:09;;;;;;;22.73;14.68;;;16.90;99.90;;;;;;5025968;28;20045;-76
2022/09/02 20:40:10;;;;;;;20.45;14.25;;;16.90;99.90;;;;;;5027852;28;20057;-76
2022/09/02 20:43:07;;;;;;;23.10;14.85;;;16.90;99.90;;;;;;5034992;28;20445;-75
2022/09/02 20:45:53;;;;;;;19.77;13.95;;;16.90;99.90;;;;;;5038044;28;20027;-75
2022/09/02 20:48:31;;;;;;;22.75;16.25;;;16.90;99.90;;;;;;5047966;28;20029;-75
2022/09/02 20:51:10;;;;;;;22.02;16.65;;;16.90;99.90;;;;;;5045009;28;20603;-75
2022/09/02 20:53:59;;;;;;;23.35;16.00;;;16.70;99.90;;;;;;5040774;28;20029;-74
2022/09/02 20:56:40;;;;;;;23.45;16.92;;;16.70;99.90;;;;;;5028619;28;20521;-75
2022/09/02 20:59:31;;;;;;;23.80;16.85;;;16.70;99.90;;;;;;4735041;28;20393;-78
2022/09/02 21:02:00;;;;;;;21.60;16.05;;;16.80;99.90;;;;;;5035063;28;20026;-77
2022/09/02 21:04:43;;;;;;;25.92;16.67;;;16.70;99.90;;;;;;5034674;28;20108;-77
2022/09/02 21:07:31;;;;;;;24.40;17.25;;;16.60;99.90;;;;;;5037028;28;20668;-77
2022/09/02 21:10:08;;;;;;;24.02;17.73;;;16.60;99.90;;;;;;5035154;28;20115;-77
2022/09/02 21:12:47;;;;;;;25.17;16.83;;;16.50;99.90;;;;;;5040183;28;20041;-78
2022/09/02 21:15:24;;;;;;;27.17;16.92;;;16.40;99.90;;;;;;5036791;28;20912;-77
2022/09/02 21:18:19;;;;;;;26.55;18.00;;;16.40;99.90;;;;;;5036206;28;20021;-76
2022/09/02 21:20:58;;;;;;;29.48;17.48;;;16.30;99.90;;;;;;5036458;28;20037;-76
2022/09/02 21:23:37;;;;;;;22.23;16.20;;;16.20;99.90;;;;;;5035387;28;20091;-76
2022/09/02 21:26:33;;;;;;;29.45;18.67;;;16.10;99.90;;;;;;5034323;28;20091;-76
2022/09/02 21:29:08;;;;;;;29.63;18.73;;;16.10;99.90;;;;;;5036923;28;20044;-76
2022/09/02 21:31:42;;;;;;;27.15;18.65;;;15.90;99.90;;;;;;5035954;28;20037;-76
2022/09/02 21:34:18;;;;;;;27.10;18.42;;;15.90;99.90;;;;;;5035516;28;20021;-76
2022/09/02 21:36:45;;;;;;;31.02;20.05;;;15.70;99.90;;;;;;5034875;28;20025;-75
2022/09/02 21:39:17;;;;;;;31.17;19.23;;;15.70;99.90;;;;;;5035331;28;20029;-74
2022/09/02 21:41:58;;;;;;;30.55;19.55;;;15.60;99.90;;;;;;5034977;28;20032;-74
2022/09/02 21:44:42;;;;;;;29.77;19.40;;;15.50;99.90;;;;;;5037165;28;20025;-74
2022/09/02 21:47:30;;;;;;;29.40;18.90;;;15.50;99.90;;;;;;5035735;28;20519;-73
2022/09/02 21:50:36;;;;;;;33.97;21.55;;;15.50;99.90;;;;;;5035501;28;20028;-74
2022/09/02 21:53:16;;;;;;;28.02;19.92;;;15.50;99.90;;;;;;5036924;28;20037;-75
2022/09/02 21:56:22;;;;;;;28.92;19.27;;;15.50;99.90;;;;;;5034430;28;20026;-75
2022/09/02 21:58:57;;;;;;;30.50;20.25;;;15.50;99.90;;;;;;5042123;28;20380;-75
2022/09/02 22:01:50;;;;;;;39.00;22.27;;;15.40;99.90;;;;;;5034993;28;20095;-74
2022/09/02 22:04:36;;;;;;;38.72;22.67;;;15.30;99.90;;;;;;5033210;28;20396;-74
2022/09/02 22:07:18;;;;;;;39.22;23.40;;;15.30;99.90;;;;;;5033614;28;20033;-75
2022/09/02 22:09:49;;;;;;;35.30;22.67;;;15.20;99.90;;;;;;5029914;28;20064;-74
2022/09/02 22:12:16;;;;;;;35.17;23.17;;;15.20;99.90;;;;;;5031477;28;20040;-74
2022/09/02 22:15:06;;;;;;;37.08;22.27;;;15.30;99.90;;;;;;5029669;28;20017;-74
2022/09/02 22:17:58;;;;;;;32.40;21.75;;;15.40;99.90;;;;;;5030745;28;20073;-74
2022/09/02 22:20:32;;;;;;;39.00;22.52;;;15.30;99.90;;;;;;5030196;28;20131;-74
2022/09/02 22:23:03;;;;;;;33.30;22.70;;;15.40;99.90;;;;;;5030841;28;20025;-74
2022/09/02 22:25:32;;;;;;;34.75;22.58;;;15.30;99.90;;;;;;5030393;28;20128;-75
2022/09/02 22:28:13;;;;;;;39.35;24.33;;;15.40;99.90;;;;;;5030256;28;20469;-75
2022/09/02 22:30:46;;;;;;;40.78;23.02;;;15.40;99.90;;;;;;5030513;28;20040;-74
2022/09/02 22:33:16;;;;;;;45.58;26.20;;;15.30;99.90;;;;;;5030878;28;20017;-74
2022/09/02 22:35:54;;;;;;;40.38;26.05;;;15.30;99.90;;;;;;5030390;28;20026;-74
2022/09/02 22:38:46;;;;;;;46.30;26.52;;;15.30;99.90;;;;;;5030465;28;20028;-74
2022/09/02 22:41:43;;;;;;;43.90;26.23;;;15.20;99.90;;;;;;5030197;28;20030;-74
2022/09/02 22:52:44;;;;;;;50.97;27.88;;;15.20;99.90;;;;;;5030362;28;20073;-75
2022/09/02 22:52:56;;;;;;;46.38;27.73;;;15.10;99.90;;;;;;5034615;28;20037;-74
2022/09/02 22:55:37;;;;;;;50.85;27.88;;;15.00;99.90;;;;;;5034233;28;20033;-74
2022/09/02 22:58:30;;;;;;;47.50;26.00;;;14.90;99.90;;;;;;5034249;28;20027;-74
2022/09/02 23:01:12;;;;;;;46.78;29.08;;;14.90;99.90;;;;;;5032605;28;20077;-74
2022/09/02 23:04:06;;;;;;;51.28;27.27;;;14.70;99.90;;;;;;5034122;28;20108;-74
2022/09/02 23:06:32;;;;;;;47.80;26.33;;;14.70;99.90;;;;;;5033991;28;20021;-75
2022/09/02 23:09:09;;;;;;;45.70;27.85;;;14.60;99.90;;;;;;5033787;28;20429;-74
2022/09/02 23:11:44;;;;;;;48.13;27.80;;;14.60;99.90;;;;;;5033803;28;20116;-74
2022/09/02 23:14:11;;;;;;;47.15;27.92;;;14.50;99.90;;;;;;5033327;28;20021;-74
2022/09/02 23:16:45;;;;;;;50.65;29.70;;;14.50;99.90;;;;;;5034048;28;20021;-74
2022/09/02 23:19:55;;;;;;;51.72;29.90;;;14.50;99.90;;;;;;5033212;28;20048;-75
2022/09/02 23:22:46;;;;;;;56.47;31.30;;;14.40;99.90;;;;;;5033458;28;20041;-74
2022/09/02 23:25:18;;;;;;;52.87;30.37;;;14.50;99.90;;;;;;5033911;28;20546;-74
2022/09/02 23:27:52;;;;;;;53.22;30.52;;;14.50;99.90;;;;;;5033813;28;20131;-74
2022/09/02 23:30:17;;;;;;;55.50;30.90;;;14.50;99.90;;;;;;5033486;28;20021;-75
2022/09/02 23:33:05;;;;;;;50.28;28.33;;;14.50;99.90;;;;;;5033642;28;20354;-74
2022/09/02 23:35:44;;;;;;;52.85;30.70;;;14.40;99.90;;;;;;5033255;28;20386;-73
2022/09/02 23:38:25;;;;;;;50.00;29.70;;;14.40;99.90;;;;;;5033688;28;20037;-74
2022/09/02 23:41:06;;;;;;;44.83;27.63;;;14.40;99.90;;;;;;5033679;28;20049;-76
2022/09/02 23:43:31;;;;;;;44.63;26.83;;;14.30;99.90;;;;;;5033663;28;20022;-76
2022/09/02 23:46:08;;;;;;;47.55;27.02;;;14.30;99.90;;;;;;5033508;28;20097;-76
2022/09/02 23:48:42;;;;;;;48.58;27.77;;;14.20;99.90;;;;;;5033928;28;20020;-76
2022/09/02 23:51:12;;;;;;;48.20;29.70;;;14.10;99.90;;;;;;5033238;28;20052;-76
2022/09/02 23:53:59;;;;;;;52.05;29.58;;;14.20;99.90;;;;;;5032208;28;20107;-76